createdAt,value
2023-03-10T00:02:01.177Z,8.80
2023-03-10T00:04:34.170Z,9.53
2023-03-10T00:07:07.171Z,9.98
2023-03-10T00:09:39.976Z,8.07
2023-03-10T00:12:14.480Z,8.40
2023-03-10T00:14:47.292Z,8.23
2023-03-10T00:17:21.510Z,9.88
2023-03-10T00:19:54.567Z,9.48
2023-03-10T00:22:27.612Z,8.82
2023-03-10T00:25:00.588Z,9.55
2023-03-10T00:27:34.192Z,10.73
2023-03-10T00:30:08.654Z,8.65
2023-03-10T00:32:42.901Z,9.27
2023-03-10T00:35:15.805Z,9.43
2023-03-10T00:37:48.624Z,9.25
2023-03-10T00:40:22.151Z,12.30
2023-03-10T00:42:54.988Z,13.32
2023-03-10T00:45:27.795Z,12.93
2023-03-10T00:48:01.962Z,9.57
2023-03-10T00:50:34.792Z,10.80
2023-03-10T00:53:07.609Z,11.52
2023-03-10T00:55:40.936Z,10.13
2023-03-10T00:58:13.812Z,10.75
2023-03-10T01:00:46.690Z,11.60
2023-03-10T01:03:20.912Z,15.15
2023-03-10T01:05:54.324Z,12.35
2023-03-10T01:08:27.320Z,11.50
2023-03-10T01:11:00.139Z,13.07
2023-03-10T01:13:33.088Z,12.35
2023-03-10T01:16:06.610Z,15.63
2023-03-10T01:18:40.971Z,17.55
2023-03-10T01:21:18.023Z,17.77
2023-03-10T01:23:51.479Z,38.40
2023-03-10T01:26:24.359Z,185.02
2023-03-10T01:28:57.377Z,529.55
2023-03-10T01:31:30.220Z,674.70
2023-03-10T01:34:04.711Z,388.75
2023-03-10T01:36:37.532Z,798.80
2023-03-10T01:39:11.923Z,582.70
2023-03-10T01:41:46.602Z,391.25
2023-03-10T01:44:21.326Z,375.75
2023-03-10T01:46:59.221Z,13.77
2023-03-10T01:49:42.694Z,58.97
2023-03-10T01:52:18.894Z,79.03
2023-03-10T01:54:56.313Z,10.57
2023-03-10T01:57:33.898Z,48.28
2023-03-10T02:00:12.187Z,10.68
2023-03-10T02:02:55.719Z,5.90
2023-03-10T02:05:31.792Z,5.45
2023-03-10T02:08:06.028Z,8.05
2023-03-10T02:10:40.210Z,12.88
2023-03-10T02:13:13.153Z,9.60
2023-03-10T02:15:47.479Z,12.80
2023-03-10T02:18:23.429Z,12.30
2023-03-10T02:21:08.978Z,15.43
2023-03-10T02:24:00.326Z,17.20
2023-03-10T02:26:41.588Z,28.38
2023-03-10T02:29:21.422Z,23.98
2023-03-10T02:31:56.018Z,19.38
2023-03-10T02:34:29.674Z,16.70
2023-03-10T02:37:02.911Z,10.80
2023-03-10T02:39:35.805Z,12.18
2023-03-10T02:42:12.173Z,10.77
2023-03-10T02:44:48.828Z,12.40
2023-03-10T02:47:21.974Z,13.63
2023-03-10T02:49:54.770Z,21.33
2023-03-10T02:52:35.171Z,21.05
2023-03-10T02:55:08.740Z,19.25
2023-03-10T02:57:41.649Z,14.57
2023-03-10T03:00:17.135Z,16.95
2023-03-10T03:02:50.004Z,15.32
2023-03-10T03:05:22.951Z,17.42
2023-03-10T03:07:55.761Z,18.42
2023-03-10T03:10:28.963Z,19.90
2023-03-10T03:13:02.341Z,22.70
2023-03-10T03:15:36.927Z,22.02
2023-03-10T03:18:10.029Z,22.52
2023-03-10T03:20:44.020Z,21.67
2023-03-10T03:23:18.301Z,23.13
2023-03-10T03:25:51.220Z,22.25
2023-03-10T03:28:27.079Z,23.02
2023-03-10T03:31:02.100Z,22.33
2023-03-10T03:33:36.854Z,19.75
2023-03-10T03:36:09.908Z,23.25
2023-03-10T03:38:42.952Z,21.77
2023-03-10T03:41:15.981Z,22.58
2023-03-10T03:43:49.361Z,21.58
2023-03-10T03:46:23.983Z,18.77
2023-03-10T03:48:57.020Z,17.20
2023-03-10T03:51:30.397Z,20.27
2023-03-10T03:54:04.606Z,17.13
2023-03-10T03:56:42.523Z,22.20
2023-03-10T03:59:18.114Z,29.15
2023-03-10T04:01:52.476Z,18.40
2023-03-10T04:04:25.666Z,26.65
2023-03-10T04:06:58.972Z,25.98
2023-03-10T04:09:32.206Z,19.83
2023-03-10T04:12:06.334Z,26.00
2023-03-10T04:14:39.482Z,24.83
2023-03-10T04:17:13.663Z,21.30
2023-03-10T04:19:54.155Z,26.00
2023-03-10T04:22:30.488Z,17.25
2023-03-10T04:25:04.866Z,24.77
2023-03-10T04:27:38.013Z,25.30
2023-03-10T04:30:13.841Z,23.87
2023-03-10T04:32:51.732Z,23.23
2023-03-10T04:35:27.365Z,21.65
2023-03-10T04:38:00.320Z,26.33
2023-03-10T04:40:33.748Z,25.65
2023-03-10T04:43:07.159Z,15.43
2023-03-10T04:45:40.220Z,25.17
2023-03-10T04:48:14.803Z,24.02
2023-03-10T04:50:56.371Z,15.60
2023-03-10T04:53:32.350Z,19.60
2023-03-10T04:56:10.498Z,13.32
2023-03-10T04:58:44.827Z,20.17
2023-03-10T05:01:18.043Z,18.65
2023-03-10T05:03:56.759Z,13.25
2023-03-10T05:06:31.189Z,16.02
2023-03-10T05:09:13.549Z,21.85
2023-03-10T05:11:46.568Z,26.45
2023-03-10T05:14:19.543Z,20.90
2023-03-10T05:16:52.796Z,28.95
2023-03-10T05:19:28.623Z,24.35
2023-03-10T05:22:04.065Z,20.80
2023-03-10T05:24:39.702Z,31.85
2023-03-10T05:27:12.920Z,29.60
2023-03-10T05:29:48.900Z,27.73
2023-03-10T05:32:27.915Z,26.15
2023-03-10T05:35:02.727Z,26.55
2023-03-10T05:37:39.269Z,26.88
2023-03-10T05:40:16.010Z,26.80
2023-03-10T05:42:50.290Z,25.17
2023-03-10T05:45:24.864Z,26.85
2023-03-10T05:47:58.129Z,24.25
2023-03-10T05:50:32.365Z,21.25
2023-03-10T05:53:05.303Z,22.10
2023-03-10T05:55:38.532Z,20.52
2023-03-10T05:58:11.578Z,14.88
2023-03-10T06:00:45.441Z,21.20
2023-03-10T06:03:18.811Z,12.25
2023-03-10T06:05:53.048Z,14.88
2023-03-10T06:08:26.557Z,17.35
2023-03-10T06:10:59.417Z,18.30
2023-03-10T06:13:32.848Z,18.35
2023-03-10T06:16:07.323Z,13.30
2023-03-10T06:18:40.196Z,14.18
2023-03-10T06:21:15.816Z,6.30
2023-03-10T06:23:48.606Z,10.80
2023-03-10T06:26:22.664Z,10.50
2023-03-10T06:28:55.508Z,8.30
2023-03-10T06:31:28.357Z,7.70
2023-03-10T06:34:04.247Z,6.95
2023-03-10T06:36:40.236Z,5.35
2023-03-10T06:39:13.126Z,5.85
2023-03-10T06:41:45.915Z,4.97
2023-03-10T06:44:19.155Z,5.57
2023-03-10T06:46:52.004Z,6.70
2023-03-10T06:49:29.975Z,5.47
2023-03-10T06:52:04.314Z,5.68
2023-03-10T06:54:37.845Z,6.60
2023-03-10T06:57:10.724Z,4.65
2023-03-10T06:59:43.680Z,4.00
2023-03-10T07:02:16.545Z,4.05
2023-03-10T07:04:49.445Z,5.28
2023-03-10T07:07:23.852Z,5.50
2023-03-10T07:09:57.476Z,5.72
2023-03-10T07:12:30.632Z,5.20
2023-03-10T07:15:03.478Z,5.40
2023-03-10T07:17:36.521Z,5.28
2023-03-10T07:20:11.295Z,4.95
2023-03-10T07:22:45.824Z,4.03
2023-03-10T07:25:18.818Z,4.72
2023-03-10T07:27:51.610Z,4.38
2023-03-10T07:30:24.417Z,4.55
2023-03-10T07:32:57.498Z,4.50
2023-03-10T07:35:30.818Z,5.28
2023-03-10T07:38:05.965Z,4.95
2023-03-10T07:40:40.249Z,4.53
2023-03-10T07:43:13.073Z,5.45
2023-03-10T07:45:46.199Z,4.82
2023-03-10T07:48:19.109Z,5.15
2023-03-10T07:50:56.984Z,5.00
2023-03-10T07:53:31.506Z,5.43
2023-03-10T07:56:06.293Z,3.40
2023-03-10T07:58:39.900Z,6.53
2023-03-10T08:01:16.960Z,7.55
2023-03-10T08:03:50.399Z,11.93
2023-03-10T08:06:25.664Z,8.73
2023-03-10T08:09:00.133Z,11.15
2023-03-10T08:11:32.914Z,12.30
2023-03-10T08:14:05.823Z,11.80
2023-03-10T08:16:39.255Z,11.10
2023-03-10T08:19:12.311Z,11.73
2023-03-10T08:21:45.698Z,12.18
2023-03-10T08:24:19.886Z,10.98
2023-03-10T08:26:52.791Z,11.63
2023-03-10T08:29:25.870Z,11.27
2023-03-10T08:31:58.957Z,12.20
2023-03-10T08:34:33.423Z,11.70
2023-03-10T08:37:06.364Z,9.13
2023-03-10T08:39:40.737Z,9.75
2023-03-10T08:42:14.431Z,11.25
2023-03-10T08:44:47.389Z,9.63
2023-03-10T08:47:20.183Z,9.13
2023-03-10T08:49:52.990Z,12.13
2023-03-10T08:52:25.812Z,11.57
2023-03-10T08:55:00.110Z,10.20
2023-03-10T08:57:33.517Z,10.35
2023-03-10T09:00:09.194Z,9.30
2023-03-10T09:02:42.023Z,10.13
2023-03-10T09:05:14.892Z,11.43
2023-03-10T09:07:47.705Z,9.77
2023-03-10T09:10:22.554Z,10.43
2023-03-10T09:13:11.042Z,9.73
2023-03-10T09:15:46.013Z,10.02
2023-03-10T09:18:18.980Z,9.32
2023-03-10T09:20:54.977Z,9.38
2023-03-10T09:23:27.935Z,10.18
2023-03-10T09:26:02.142Z,10.55
2023-03-10T09:28:35.183Z,10.65
2023-03-10T09:31:09.778Z,9.98
2023-03-10T09:33:42.771Z,10.18
2023-03-10T09:36:16.373Z,10.60
2023-03-10T09:38:49.574Z,10.57
2023-03-10T09:41:44.914Z,11.18
2023-03-10T09:44:25.903Z,9.93
2023-03-10T09:47:23.443Z,10.32
2023-03-10T09:50:11.300Z,9.45
2023-03-10T09:52:47.294Z,10.48
2023-03-10T09:55:23.221Z,10.77
2023-03-10T09:57:58.901Z,10.35
2023-03-10T10:00:38.384Z,8.48
2023-03-10T10:03:18.312Z,9.18
2023-03-10T10:05:55.165Z,8.32
2023-03-10T10:08:31.233Z,8.70
2023-03-10T10:11:04.440Z,9.23
2023-03-10T10:13:43.159Z,10.25
2023-03-10T10:16:34.616Z,9.90
2023-03-10T10:19:15.600Z,9.05
2023-03-10T10:21:52.406Z,8.52
2023-03-10T10:24:25.392Z,10.13
2023-03-10T10:26:58.223Z,8.50
2023-03-10T10:29:36.341Z,9.25
2023-03-10T10:32:12.191Z,10.13
2023-03-10T10:34:47.207Z,8.98
2023-03-10T10:39:59.730Z,11.20
2023-03-10T10:42:35.098Z,10.52
2023-03-10T10:45:28.042Z,9.70
2023-03-10T10:48:00.997Z,8.35
2023-03-10T10:50:35.566Z,9.65
2023-03-10T10:53:24.198Z,8.52
2023-03-10T10:56:02.537Z,9.82
2023-03-10T10:58:37.243Z,8.90
2023-03-10T11:01:13.676Z,9.02
2023-03-10T11:03:48.790Z,10.65
2023-03-10T11:06:27.078Z,10.30
2023-03-10T11:09:07.906Z,9.68
2023-03-10T11:11:51.036Z,10.15
2023-03-10T11:14:41.964Z,9.80
2023-03-10T11:17:23.012Z,10.00
2023-03-10T11:20:04.289Z,9.77
2023-03-10T11:22:43.026Z,10.93
2023-03-10T11:25:30.825Z,11.07
2023-03-10T11:28:19.211Z,10.55
2023-03-10T11:31:01.481Z,9.52
2023-03-10T11:33:44.594Z,8.25
2023-03-10T11:36:28.034Z,7.75
2023-03-10T11:39:09.782Z,9.27
2023-03-10T11:41:49.611Z,7.95
2023-03-10T11:44:29.933Z,9.48
2023-03-10T11:47:13.003Z,9.70
2023-03-10T11:49:53.180Z,9.18
2023-03-10T11:52:29.482Z,8.68
2023-03-10T11:57:46.810Z,9.18
2023-03-10T12:00:25.197Z,9.50
2023-03-10T12:03:09.463Z,7.72
2023-03-10T12:05:52.364Z,8.77
2023-03-10T12:08:29.091Z,10.43
2023-03-10T12:11:05.226Z,10.15
2023-03-10T12:13:45.242Z,8.20
2023-03-10T12:16:21.915Z,10.05
2023-03-10T12:18:55.230Z,8.90
2023-03-10T12:21:30.932Z,8.10
2023-03-10T12:24:05.382Z,9.38
2023-03-10T12:27:02.611Z,8.98
2023-03-10T12:29:41.970Z,9.82
2023-03-10T12:32:41.950Z,10.75
2023-03-10T12:35:46.070Z,10.60
2023-03-10T12:38:30.173Z,8.65
2023-03-10T12:41:03.182Z,9.15
2023-03-10T12:43:55.436Z,10.23
2023-03-10T12:46:40.578Z,7.95
2023-03-10T12:49:24.356Z,8.80
2023-03-10T12:52:11.932Z,10.23
2023-03-10T12:55:03.820Z,8.75
2023-03-10T12:57:42.423Z,9.02
2023-03-10T13:00:26.395Z,9.73
2023-03-10T13:03:05.242Z,10.13
2023-03-10T13:05:42.025Z,8.90
2023-03-10T13:08:20.678Z,8.90
2023-03-10T13:10:56.810Z,8.60
2023-03-10T13:13:34.227Z,7.38
2023-03-10T13:16:09.055Z,8.18
2023-03-10T13:18:48.106Z,8.55
2023-03-10T13:21:26.725Z,9.35
2023-03-10T13:24:00.892Z,7.28
2023-03-10T13:26:35.417Z,10.68
2023-03-10T13:29:18.651Z,9.32
2023-03-10T13:31:55.812Z,6.97
2023-03-10T13:34:31.394Z,7.80
2023-03-10T13:37:06.435Z,8.68
2023-03-10T13:39:39.661Z,8.02
2023-03-10T13:42:28.453Z,7.40
2023-03-10T13:45:16.385Z,6.22
2023-03-10T13:47:49.520Z,6.93
2023-03-10T13:50:23.011Z,6.60
2023-03-10T13:52:59.569Z,6.63
2023-03-10T13:55:40.953Z,6.97
2023-03-10T13:58:15.427Z,6.32
2023-03-10T14:00:50.505Z,7.13
2023-03-10T14:03:23.572Z,5.93
2023-03-10T14:05:56.461Z,6.82
2023-03-10T14:08:32.330Z,6.82
2023-03-10T14:11:41.021Z,6.28
2023-03-10T14:14:27.602Z,5.85
2023-03-10T14:17:02.332Z,5.43
2023-03-10T14:19:51.275Z,6.30
2023-03-10T14:22:40.541Z,6.28
2023-03-10T14:25:16.278Z,7.07
2023-03-10T14:27:55.962Z,6.13
2023-03-10T14:30:31.968Z,7.20
2023-03-10T14:33:12.442Z,6.90
2023-03-10T14:35:46.478Z,5.70
2023-03-10T14:38:19.732Z,6.60
2023-03-10T14:40:55.493Z,6.40
2023-03-10T14:43:29.899Z,5.55
2023-03-10T14:46:05.756Z,5.38
2023-03-10T14:48:41.794Z,4.40
2023-03-10T14:51:29.012Z,4.85
2023-03-10T14:54:16.874Z,4.30
2023-03-10T14:56:53.668Z,5.53
2023-03-10T14:59:28.583Z,5.25
2023-03-10T15:02:07.479Z,5.82
2023-03-10T15:04:40.455Z,4.80
2023-03-10T15:07:15.111Z,5.25
2023-03-10T15:09:49.565Z,6.10
2023-03-10T15:12:25.490Z,5.75
2023-03-10T15:14:58.369Z,4.78
2023-03-10T15:17:32.545Z,10.38
2023-03-10T15:20:08.398Z,31.13
2023-03-10T15:22:41.243Z,9.02
2023-03-10T15:25:15.614Z,2.45
2023-03-10T15:27:50.185Z,4.43
2023-03-10T15:30:25.822Z,4.85
2023-03-10T15:33:00.491Z,3.45
2023-03-10T15:35:33.826Z,2.13
2023-03-10T15:38:06.700Z,2.72
2023-03-10T15:40:39.736Z,4.45
2023-03-10T15:43:12.817Z,3.50
2023-03-10T15:45:49.111Z,3.50
2023-03-10T15:48:23.418Z,7.65
2023-03-10T15:50:56.436Z,7.22
2023-03-10T15:53:29.257Z,25.42
2023-03-10T15:56:06.821Z,7.05
2023-03-10T15:58:39.758Z,5.00
2023-03-10T16:01:16.519Z,5.45
2023-03-10T16:03:50.733Z,1.60
2023-03-10T16:06:25.752Z,3.60
2023-03-10T16:08:58.633Z,1.88
2023-03-10T16:11:31.718Z,19.83
2023-03-10T16:14:07.541Z,22.67
2023-03-10T16:16:43.549Z,1.55
2023-03-10T16:19:17.833Z,2.85
2023-03-10T16:21:52.427Z,2.55
2023-03-10T16:24:27.472Z,2.38
2023-03-10T16:27:00.321Z,1.25
2023-03-10T16:29:33.123Z,0.98
2023-03-10T16:32:06.974Z,1.20
2023-03-10T16:34:41.094Z,2.17
2023-03-10T16:37:13.934Z,2.33
2023-03-10T16:39:46.786Z,1.13
2023-03-10T16:42:19.602Z,1.50
2023-03-10T16:44:55.448Z,1.27
2023-03-10T16:47:29.350Z,1.30
2023-03-10T16:50:03.578Z,1.25
2023-03-10T16:52:40.777Z,1.42
2023-03-10T16:55:17.184Z,1.45
2023-03-10T16:57:50.172Z,1.60
2023-03-10T17:00:26.389Z,1.67
2023-03-10T17:02:59.319Z,2.00
2023-03-10T17:05:33.983Z,1.77
2023-03-10T17:08:07.085Z,2.05
2023-03-10T17:10:39.944Z,2.30
2023-03-10T17:13:12.771Z,2.15
2023-03-10T17:15:45.663Z,2.25
2023-03-10T17:18:19.461Z,2.60
2023-03-10T17:20:53.712Z,1.95
2023-03-10T17:23:26.656Z,3.28
2023-03-10T17:25:59.995Z,2.60
2023-03-10T17:28:32.783Z,3.10
2023-03-10T17:31:09.335Z,2.28
2023-03-10T17:33:43.591Z,3.42
2023-03-10T17:36:18.126Z,3.15
2023-03-10T17:38:53.471Z,3.38
2023-03-10T17:41:27.414Z,4.03
2023-03-10T17:44:00.470Z,3.40
2023-03-10T17:46:33.647Z,9.73
2023-03-10T17:49:06.507Z,3.22
2023-03-10T17:51:43.512Z,4.13
2023-03-10T17:54:19.961Z,4.75
2023-03-10T17:56:52.998Z,9.18
2023-03-10T17:59:25.918Z,4.78
2023-03-10T18:01:58.737Z,10.40
2023-03-10T18:04:31.592Z,3.03
2023-03-10T18:07:05.747Z,4.32
2023-03-10T18:09:39.159Z,4.18
2023-03-10T18:13:11.556Z,4.32
2023-03-10T18:15:50.662Z,3.97
2023-03-10T18:18:23.584Z,3.60
2023-03-10T18:20:56.439Z,3.95
2023-03-10T18:23:30.734Z,3.78
2023-03-10T18:26:06.763Z,4.95
2023-03-10T18:28:40.431Z,4.78
2023-03-10T18:31:19.432Z,3.22
2023-03-10T18:33:52.985Z,5.65
2023-03-10T18:36:26.510Z,38.20
2023-03-10T18:39:03.466Z,17.90
2023-03-10T18:41:39.200Z,7.00
2023-03-10T18:44:12.043Z,10.05
2023-03-10T18:46:46.475Z,9.95
2023-03-10T18:49:19.444Z,12.07
2023-03-10T18:51:52.303Z,5.13
2023-03-10T18:54:26.590Z,6.30
2023-03-10T18:57:01.591Z,5.97
2023-03-10T19:02:11.190Z,3.67
2023-03-10T19:04:47.610Z,3.88
2023-03-10T19:07:21.280Z,3.50
2023-03-10T19:09:55.649Z,5.93
2023-03-10T19:12:28.696Z,3.35
2023-03-10T19:15:06.653Z,2.40
2023-03-10T19:17:41.738Z,3.00
2023-03-10T19:22:52.246Z,3.72
2023-03-10T19:25:26.477Z,4.32
2023-03-10T19:27:59.268Z,1.90
2023-03-10T19:30:32.661Z,2.10
2023-03-10T19:33:05.471Z,2.05
2023-03-10T19:35:38.372Z,2.33
2023-03-10T19:38:13.408Z,2.08
2023-03-10T19:43:21.218Z,2.30
2023-03-10T19:46:00.863Z,2.10
2023-03-10T19:48:33.949Z,1.98
2023-03-10T19:51:20.693Z,2.00
2023-03-10T19:54:52.434Z,1.98
2023-03-10T19:58:25.355Z,3.42
2023-03-10T20:02:01.487Z,2.75
2023-03-10T20:05:33.004Z,3.08
2023-03-10T20:09:08.979Z,2.95
2023-03-10T20:12:42.658Z,3.08
2023-03-10T20:16:15.681Z,3.67
2023-03-10T20:19:47.302Z,4.22
2023-03-10T20:23:20.214Z,4.88
2023-03-10T20:27:02.990Z,5.03
2023-03-10T20:30:37.373Z,2.17
2023-03-10T20:34:08.166Z,4.88
2023-03-10T20:37:41.679Z,2.30
2023-03-10T20:41:16.204Z,2.78
2023-03-10T20:44:49.381Z,2.10
2023-03-10T20:48:22.143Z,1.77
2023-03-10T20:51:53.848Z,2.00
2023-03-10T20:55:26.356Z,2.70
2023-03-10T20:59:01.576Z,2.13
2023-03-10T21:02:34.241Z,1.52
2023-03-10T21:06:06.427Z,6.13
2023-03-10T21:09:37.863Z,2.40
2023-03-10T21:13:05.132Z,1.92
2023-03-10T21:16:33.609Z,1.50
2023-03-10T21:20:07.852Z,1.98
2023-03-10T21:22:44.931Z,1.35
2023-03-10T21:25:21.969Z,1.60
2023-03-10T21:27:58.849Z,1.90
2023-03-10T21:30:34.092Z,2.13
2023-03-10T21:33:10.249Z,1.50
2023-03-10T21:38:20.196Z,1.60
2023-03-10T21:40:53.765Z,1.40
2023-03-10T21:43:27.805Z,1.85
2023-03-10T21:46:03.151Z,1.80
2023-03-10T21:48:36.177Z,1.45
2023-03-10T21:51:16.760Z,1.97
2023-03-10T21:53:53.593Z,1.38
2023-03-10T21:56:28.872Z,1.50
2023-03-10T21:59:01.937Z,1.65
2023-03-10T22:01:35.664Z,2.10
2023-03-10T22:04:10.644Z,1.42
2023-03-10T22:09:18.094Z,1.80
2023-03-10T22:11:55.420Z,1.60
2023-03-10T22:14:34.488Z,1.50
2023-03-10T22:17:08.112Z,1.77
2023-03-10T22:19:45.412Z,1.58
2023-03-10T22:22:19.861Z,1.63
2023-03-10T22:24:53.669Z,1.42
2023-03-10T22:27:26.976Z,1.77
2023-03-10T22:30:00.096Z,1.55
2023-03-10T22:32:34.081Z,1.58
2023-03-10T22:35:09.912Z,1.77
2023-03-10T22:37:44.700Z,2.17
2023-03-10T22:40:19.764Z,1.80
2023-03-10T22:42:55.701Z,2.17
2023-03-10T22:45:31.019Z,2.05
2023-03-10T22:48:06.819Z,1.95
2023-03-10T22:50:43.481Z,2.10
2023-03-10T22:53:20.936Z,1.35
2023-03-10T22:55:53.742Z,1.50
2023-03-10T22:58:26.577Z,1.33
2023-03-10T23:01:00.741Z,1.40
2023-03-10T23:03:34.615Z,1.70
2023-03-10T23:06:08.551Z,1.77
2023-03-10T23:08:46.384Z,1.40
2023-03-10T23:11:19.489Z,1.23
2023-03-10T23:13:52.474Z,1.60
2023-03-10T23:16:25.317Z,1.88
2023-03-10T23:19:00.261Z,1.60
2023-03-10T23:24:07.987Z,2.65
2023-03-10T23:26:41.010Z,2.47
2023-03-10T23:29:14.902Z,2.10
2023-03-10T23:31:48.070Z,2.30
2023-03-10T23:34:21.098Z,2.83
2023-03-10T23:36:55.972Z,2.92
2023-03-10T23:39:30.085Z,2.90
2023-03-10T23:42:04.066Z,2.35
2023-03-10T23:44:37.667Z,2.30
2023-03-10T23:47:10.474Z,2.03
2023-03-10T23:49:43.715Z,1.83
2023-03-10T23:52:16.611Z,1.90
2023-03-10T23:54:50.809Z,1.77
2023-03-10T23:57:23.743Z,1.60
2023-03-10T23:59:56.750Z,1.65
